sensor_id;sensor_type;location;lat;lon;timestamp;pressure;altitude;pressure_sealevel;temperature;humidity
498;BME280;39559;48.630;9.162;2024-03-25T00:01:39;96786.34;;;2.81;100.00
498;BME280;39559;48.630;9.162;2024-03-25T00:06:13;96787.19;;;2.81;100.00
498;BME280;39559;48.630;9.162;2024-03-25T00:08:38;96791.56;;;2.76;100.00
498;BME280;39559;48.630;9.162;2024-03-25T00:11:04;96783.03;;;2.76;100.00
498;BME280;39559;48.630;9.162;2024-03-25T00:13:29;96787.34;;;2.74;100.00
498;BME280;39559;48.630;9.162;2024-03-25T00:15:55;96785.72;;;2.71;100.00
498;BME280;39559;48.630;9.162;2024-03-25T00:18:20;96787.41;;;2.71;100.00
498;BME280;39559;48.630;9.162;2024-03-25T00:20:46;96779.75;;;2.69;100.00
498;BME280;39559;48.630;9.162;2024-03-25T00:23:11;96781.44;;;2.72;100.00
498;BME280;39559;48.630;9.162;2024-03-25T00:25:37;96784.81;;;2.72;100.00
498;BME280;39559;48.630;9.162;2024-03-25T00:30:13;96772.13;;;2.67;100.00
498;BME280;39559;48.630;9.162;2024-03-25T00:32:39;96778.91;;;2.70;100.00
498;BME280;39559;48.630;9.162;2024-03-25T00:35:05;96775.63;;;2.63;100.00
498;BME280;39559;48.630;9.162;2024-03-25T00:37:31;96770.41;;;2.68;100.00
498;BME280;39559;48.630;9.162;2024-03-25T00:39:56;96775.41;;;2.73;100.00
498;BME280;39559;48.630;9.162;2024-03-25T00:42:23;96781.50;;;2.68;100.00
498;BME280;39559;48.630;9.162;2024-03-25T00:44:48;96775.47;;;2.71;100.00
498;BME280;39559;48.630;9.162;2024-03-25T00:47:14;96781.44;;;2.72;100.00
498;BME280;39559;48.630;9.162;2024-03-25T00:49:40;96764.44;;;2.67;100.00
498;BME280;39559;48.630;9.162;2024-03-25T00:54:14;96764.47;;;2.66;100.00
498;BME280;39559;48.630;9.162;2024-03-25T00:56:39;96772.19;;;2.64;100.00
498;BME280;39559;48.630;9.162;2024-03-25T00:59:05;96765.38;;;2.63;100.00
498;BME280;39559;48.630;9.162;2024-03-25T01:01:32;96760.22;;;2.63;100.00
498;BME280;39559;48.630;9.162;2024-03-25T01:03:58;96754.13;;;2.69;100.00
498;BME280;39559;48.630;9.162;2024-03-25T01:06:24;96756.44;;;2.80;100.00
498;BME280;39559;48.630;9.162;2024-03-25T01:08:50;96759.91;;;2.79;100.00
498;BME280;39559;48.630;9.162;2024-03-25T01:11:16;96759.72;;;2.86;100.00
498;BME280;39559;48.630;9.162;2024-03-25T01:13:42;96758.13;;;2.81;100.00
498;BME280;39559;48.630;9.162;2024-03-25T01:18:14;96760.03;;;2.73;100.00
498;BME280;39559;48.630;9.162;2024-03-25T01:20:40;96748.91;;;2.74;100.00
498;BME280;39559;48.630;9.162;2024-03-25T01:23:05;96747.84;;;2.82;100.00
498;BME280;39559;48.630;9.162;2024-03-25T01:25:31;96752.84;;;2.87;100.00
498;BME280;39559;48.630;9.162;2024-03-25T01:27:56;96748.59;;;2.87;100.00
498;BME280;39559;48.630;9.162;2024-03-25T01:30:22;96758.25;;;2.75;100.00
498;BME280;39559;48.630;9.162;2024-03-25T01:32:47;96756.38;;;2.83;100.00
498;BME280;39559;48.630;9.162;2024-03-25T01:35:14;96749.34;;;2.91;100.00
498;BME280;39559;48.630;9.162;2024-03-25T01:37:41;96750.41;;;2.82;100.00
498;BME280;39559;48.630;9.162;2024-03-25T01:42:14;96743.09;;;3.01;100.00
498;BME280;39559;48.630;9.162;2024-03-25T01:44:39;96746.81;;;2.90;100.00
498;BME280;39559;48.630;9.162;2024-03-25T01:47:05;96750.50;;;2.78;100.00
498;BME280;39559;48.630;9.162;2024-03-25T01:49:31;96752.19;;;2.80;100.00
498;BME280;39559;48.630;9.162;2024-03-25T01:51:57;96747.88;;;2.81;100.00
498;BME280;39559;48.630;9.162;2024-03-25T01:54:23;96748.31;;;2.62;100.00
498;BME280;39559;48.630;9.162;2024-03-25T01:56:49;96747.44;;;2.62;100.00
498;BME280;39559;48.630;9.162;2024-03-25T01:59:16;96747.50;;;2.60;100.00
498;BME280;39559;48.630;9.162;2024-03-25T02:01:45;96755.19;;;2.60;100.00
498;BME280;39559;48.630;9.162;2024-03-25T02:06:15;96746.81;;;2.52;100.00
498;BME280;39559;48.630;9.162;2024-03-25T02:08:43;96750.84;;;2.64;100.00
498;BME280;39559;48.630;9.162;2024-03-25T02:11:10;96754.56;;;2.88;100.00
498;BME280;39559;48.630;9.162;2024-03-25T02:13:37;96755.28;;;2.93;100.00
498;BME280;39559;48.630;9.162;2024-03-25T02:16:03;96748.38;;;2.97;100.00
498;BME280;39559;48.630;9.162;2024-03-25T02:18:29;96747.03;;;2.80;100.00
498;BME280;39559;48.630;9.162;2024-03-25T02:20:57;96741.59;;;2.93;100.00
498;BME280;39559;48.630;9.162;2024-03-25T02:23:23;96752.56;;;2.99;100.00
498;BME280;39559;48.630;9.162;2024-03-25T02:25:52;96745.19;;;2.85;100.00
498;BME280;39559;48.630;9.162;2024-03-25T02:30:14;96739.16;;;2.50;100.00
498;BME280;39559;48.630;9.162;2024-03-25T02:32:41;96744.81;;;2.27;100.00
498;BME280;39559;48.630;9.162;2024-03-25T02:35:08;96745.84;;;2.19;100.00
498;BME280;39559;48.630;9.162;2024-03-25T02:37:36;96747.25;;;2.34;100.00
498;BME280;39559;48.630;9.162;2024-03-25T02:40:03;96741.88;;;2.44;100.00
498;BME280;39559;48.630;9.162;2024-03-25T02:42:31;96748.59;;;2.50;100.00
498;BME280;39559;48.630;9.162;2024-03-25T02:44:57;96743.34;;;2.55;100.00
498;BME280;39559;48.630;9.162;2024-03-25T02:47:23;96736.78;;;2.43;100.00
498;BME280;39559;48.630;9.162;2024-03-25T02:49:49;96735.19;;;2.39;100.00
498;BME280;39559;48.630;9.162;2024-03-25T02:54:14;96732.69;;;2.34;100.00
498;BME280;39559;48.630;9.162;2024-03-25T02:56:40;96738.66;;;2.35;100.00
498;BME280;39559;48.630;9.162;2024-03-25T02:59:06;96731.72;;;2.40;100.00
498;BME280;39559;48.630;9.162;2024-03-25T03:01:32;96733.34;;;2.44;100.00
498;BME280;39559;48.630;9.162;2024-03-25T03:03:57;96722.25;;;2.43;100.00
498;BME280;39559;48.630;9.162;2024-03-25T03:06:23;96721.34;;;2.46;100.00
498;BME280;39559;48.630;9.162;2024-03-25T03:08:48;96727.94;;;2.56;100.00
498;BME280;39559;48.630;9.162;2024-03-25T03:11:14;96719.41;;;2.56;100.00
498;BME280;39559;48.630;9.162;2024-03-25T03:13:39;96730.50;;;2.56;100.00
498;BME280;39559;48.630;9.162;2024-03-25T03:18:15;96727.38;;;2.43;100.00
498;BME280;39559;48.630;9.162;2024-03-25T03:20:40;96726.50;;;2.44;100.00
498;BME280;39559;48.630;9.162;2024-03-25T03:23:05;96722.19;;;2.46;100.00
498;BME280;39559;48.630;9.162;2024-03-25T03:25:31;96722.22;;;2.45;100.00
498;BME280;39559;48.630;9.162;2024-03-25T03:27:56;96717.22;;;2.40;100.00
498;BME280;39559;48.630;9.162;2024-03-25T03:30:22;96722.97;;;2.50;100.00
498;BME280;39559;48.630;9.162;2024-03-25T03:32:47;96718.81;;;2.44;100.00
498;BME280;39559;48.630;9.162;2024-03-25T03:35:13;96708.63;;;2.41;100.00
498;BME280;39559;48.630;9.162;2024-03-25T03:37:38;96716.22;;;2.46;100.00
498;BME280;39559;48.630;9.162;2024-03-25T03:42:15;96713.56;;;2.49;100.00
498;BME280;39559;48.630;9.162;2024-03-25T03:44:40;96721.31;;;2.47;100.00
498;BME280;39559;48.630;9.162;2024-03-25T03:47:06;96714.50;;;2.46;100.00
498;BME280;39559;48.630;9.162;2024-03-25T03:49:31;96706.81;;;2.46;100.00
498;BME280;39559;48.630;9.162;2024-03-25T03:51:57;96712.91;;;2.41;100.00
498;BME280;39559;48.630;9.162;2024-03-25T03:54:22;96722.34;;;2.40;100.00
498;BME280;39559;48.630;9.162;2024-03-25T03:56:48;96726.69;;;2.37;100.00
498;BME280;39559;48.630;9.162;2024-03-25T03:59:13;96735.28;;;2.33;100.00
498;BME280;39559;48.630;9.162;2024-03-25T04:01:39;96729.31;;;2.34;100.00
498;BME280;39559;48.630;9.162;2024-03-25T04:06:14;96740.47;;;2.31;100.00
498;BME280;39559;48.630;9.162;2024-03-25T04:08:40;96738.81;;;2.28;100.00
498;BME280;39559;48.630;9.162;2024-03-25T04:11:06;96732.81;;;2.29;100.00
498;BME280;39559;48.630;9.162;2024-03-25T04:13:33;96728.38;;;2.36;100.00
498;BME280;39559;48.630;9.162;2024-03-25T04:16:03;96724.25;;;2.30;100.00
498;BME280;39559;48.630;9.162;2024-03-25T04:18:31;96726.13;;;2.24;100.00
498;BME280;39559;48.630;9.162;2024-03-25T04:20:57;96726.16;;;2.22;100.00
498;BME280;39559;48.630;9.162;2024-03-25T04:23:23;96720.84;;;2.30;100.00
498;BME280;39559;48.630;9.162;2024-03-25T04:25:49;96715.81;;;2.25;100.00
498;BME280;39559;48.630;9.162;2024-03-25T04:30:16;96720.84;;;2.30;100.00
498;BME280;39559;48.630;9.162;2024-03-25T04:32:42;96725.16;;;2.28;100.00
498;BME280;39559;48.630;9.162;2024-03-25T04:35:08;96718.31;;;2.28;100.00
498;BME280;39559;48.630;9.162;2024-03-25T04:37:34;96721.63;;;2.34;100.00
498;BME280;39559;48.630;9.162;2024-03-25T04:40:01;96721.41;;;2.43;100.00
498;BME280;39559;48.630;9.162;2024-03-25T04:42:26;96718.25;;;2.32;100.00
498;BME280;39559;48.630;9.162;2024-03-25T04:44:52;96715.59;;;2.35;100.00
498;BME280;39559;48.630;9.162;2024-03-25T04:47:19;96725.19;;;2.26;100.00
498;BME280;39559;48.630;9.162;2024-03-25T04:49:44;96719.88;;;2.36;100.00
498;BME280;39559;48.630;9.162;2024-03-25T04:54:15;96722.03;;;2.53;100.00
498;BME280;39559;48.630;9.162;2024-03-25T04:56:41;96724.94;;;2.39;100.00
498;BME280;39559;48.630;9.162;2024-03-25T04:59:07;96722.19;;;2.46;100.00
498;BME280;39559;48.630;9.162;2024-03-25T05:01:32;96724.84;;;2.42;100.00
498;BME280;39559;48.630;9.162;2024-03-25T05:03:58;96718.91;;;2.40;100.00
498;BME280;39559;48.630;9.162;2024-03-25T05:06:23;96725.91;;;2.33;100.00
498;BME280;39559;48.630;9.162;2024-03-25T05:08:48;96733.41;;;2.41;100.00
498;BME280;39559;48.630;9.162;2024-03-25T05:11:15;96733.28;;;2.45;100.00
498;BME280;39559;48.630;9.162;2024-03-25T05:13:40;96737.84;;;2.33;100.00
498;BME280;39559;48.630;9.162;2024-03-25T05:18:17;96742.28;;;2.26;100.00
498;BME280;39559;48.630;9.162;2024-03-25T05:20:42;96738.31;;;2.11;100.00
498;BME280;39559;48.630;9.162;2024-03-25T05:23:08;96736.78;;;2.04;100.00
498;BME280;39559;48.630;9.162;2024-03-25T05:25:35;96741.81;;;2.07;100.00
498;BME280;39559;48.630;9.162;2024-03-25T05:28:00;96743.06;;;2.29;100.00
498;BME280;39559;48.630;9.162;2024-03-25T05:30:26;96741.38;;;2.28;100.00
498;BME280;39559;48.630;9.162;2024-03-25T05:32:52;96736.25;;;2.28;100.00
498;BME280;39559;48.630;9.162;2024-03-25T05:35:17;96736.31;;;2.25;100.00
498;BME280;39559;48.630;9.162;2024-03-25T05:37:43;96741.59;;;2.18;100.00
498;BME280;39559;48.630;9.162;2024-03-25T05:42:17;96743.28;;;2.20;100.00
498;BME280;39559;48.630;9.162;2024-03-25T05:44:45;96738.56;;;2.39;100.00
498;BME280;39559;48.630;9.162;2024-03-25T05:47:11;96742.75;;;2.43;100.00
498;BME280;39559;48.630;9.162;2024-03-25T05:49:37;96744.50;;;2.41;100.00
498;BME280;39559;48.630;9.162;2024-03-25T05:52:02;96738.41;;;2.47;100.00
498;BME280;39559;48.630;9.162;2024-03-25T05:54:28;96740.19;;;2.43;100.00
498;BME280;39559;48.630;9.162;2024-03-25T05:56:53;96745.50;;;2.34;100.00
498;BME280;39559;48.630;9.162;2024-03-25T05:59:18;96746.50;;;2.28;100.00
498;BME280;39559;48.630;9.162;2024-03-25T06:01:44;96745.47;;;2.36;100.00
498;BME280;39559;48.630;9.162;2024-03-25T06:06:16;96745.44;;;2.39;100.00
498;BME280;39559;48.630;9.162;2024-03-25T06:08:42;96748.03;;;2.37;100.00
498;BME280;39559;48.630;9.162;2024-03-25T06:11:08;96747.78;;;2.48;100.00
498;BME280;39559;48.630;9.162;2024-03-25T06:13:33;96733.91;;;2.57;100.00
498;BME280;39559;48.630;9.162;2024-03-25T06:15:59;96732.25;;;2.54;100.00
498;BME280;39559;48.630;9.162;2024-03-25T06:18:24;96730.59;;;2.53;100.00
498;BME280;39559;48.630;9.162;2024-03-25T06:20:50;96729.44;;;2.65;100.00
498;BME280;39559;48.630;9.162;2024-03-25T06:23:26;96730.13;;;2.73;100.00
498;BME280;39559;48.630;9.162;2024-03-25T06:25:53;96732.03;;;2.99;100.00
498;BME280;39559;48.630;9.162;2024-03-25T06:30:17;96722.75;;;2.95;100.00
498;BME280;39559;48.630;9.162;2024-03-25T06:33:01;96723.31;;;3.06;100.00
498;BME280;39559;48.630;9.162;2024-03-25T06:35:45;96724.31;;;3.01;100.00
498;BME280;39559;48.630;9.162;2024-03-25T06:38:11;96728.28;;;3.13;100.00
498;BME280;39559;48.630;9.162;2024-03-25T06:40:39;96730.84;;;3.13;100.00
498;BME280;39559;48.630;9.162;2024-03-25T06:43:05;96728.88;;;3.24;100.00
498;BME280;39559;48.630;9.162;2024-03-25T06:45:31;96734.31;;;3.44;100.00
498;BME280;39559;48.630;9.162;2024-03-25T06:47:57;96733.72;;;3.35;100.00
498;BME280;39559;48.630;9.162;2024-03-25T06:50:23;96742.16;;;3.38;100.00
498;BME280;39559;48.630;9.162;2024-03-25T06:54:18;96740.38;;;3.42;100.00
498;BME280;39559;48.630;9.162;2024-03-25T06:56:43;96741.38;;;3.36;100.00
498;BME280;39559;48.630;9.162;2024-03-25T06:59:09;96744.56;;;3.46;100.00
498;BME280;39559;48.630;9.162;2024-03-25T07:01:34;96744.91;;;3.65;100.00
498;BME280;39559;48.630;9.162;2024-03-25T07:04:00;96744.28;;;3.57;100.00
498;BME280;39559;48.630;9.162;2024-03-25T07:06:26;96753.34;;;3.69;100.00
498;BME280;39559;48.630;9.162;2024-03-25T07:08:52;96761.66;;;3.78;100.00
498;BME280;39559;48.630;9.162;2024-03-25T07:11:17;96763.81;;;3.94;100.00
498;BME280;39559;48.630;9.162;2024-03-25T07:13:43;96758.22;;;4.09;100.00
498;BME280;39559;48.630;9.162;2024-03-25T07:18:17;96749.44;;;4.16;100.00
498;BME280;39559;48.630;9.162;2024-03-25T07:20:44;96747.78;;;4.15;100.00
498;BME280;39559;48.630;9.162;2024-03-25T07:23:10;96745.94;;;4.20;100.00
498;BME280;39559;48.630;9.162;2024-03-25T07:25:36;96743.72;;;4.36;100.00
498;BME280;39559;48.630;9.162;2024-03-25T07:28:02;96737.47;;;4.45;100.00
498;BME280;39559;48.630;9.162;2024-03-25T07:30:28;96735.94;;;4.68;100.00
498;BME280;39559;48.630;9.162;2024-03-25T07:32:58;96735.66;;;4.77;100.00
498;BME280;39559;48.630;9.162;2024-03-25T07:35:24;96719.88;;;4.88;100.00
498;BME280;39559;48.630;9.162;2024-03-25T07:37:50;96724.78;;;4.95;100.00
498;BME280;39559;48.630;9.162;2024-03-25T07:42:18;96719.09;;;5.11;100.00
498;BME280;39559;48.630;9.162;2024-03-25T07:44:44;96721.69;;;5.11;100.00
498;BME280;39559;48.630;9.162;2024-03-25T07:47:09;96716.44;;;4.87;100.00
498;BME280;39559;48.630;9.162;2024-03-25T07:49:35;96715.13;;;5.27;100.00
498;BME280;39559;48.630;9.162;2024-03-25T07:52:01;96710.97;;;5.48;100.00
498;BME280;39559;48.630;9.162;2024-03-25T07:54:28;96708.31;;;5.51;100.00
498;BME280;39559;48.630;9.162;2024-03-25T07:56:53;96714.94;;;5.58;100.00
498;BME280;39559;48.630;9.162;2024-03-25T07:59:19;96713.44;;;6.00;100.00
498;BME280;39559;48.630;9.162;2024-03-25T08:01:44;96714.09;;;6.29;100.00
498;BME280;39559;48.630;9.162;2024-03-25T08:06:18;96706.47;;;6.49;100.00
498;BME280;39559;48.630;9.162;2024-03-25T08:08:46;96701.16;;;6.75;100.00
498;BME280;39559;48.630;9.162;2024-03-25T08:11:12;96708.88;;;6.75;100.00
498;BME280;39559;48.630;9.162;2024-03-25T08:13:38;96703.00;;;6.27;100.00
498;BME280;39559;48.630;9.162;2024-03-25T08:16:03;96710.19;;;6.42;100.00
498;BME280;39559;48.630;9.162;2024-03-25T08:18:29;96706.63;;;6.67;100.00
498;BME280;39559;48.630;9.162;2024-03-25T08:20:55;96711.53;;;6.95;100.00
498;BME280;39559;48.630;9.162;2024-03-25T08:23:20;96702.69;;;7.21;100.00
498;BME280;39559;48.630;9.162;2024-03-25T08:25:46;96700.78;;;7.26;100.00
498;BME280;39559;48.630;9.162;2024-03-25T08:30:18;96694.75;;;7.46;100.00
498;BME280;39559;48.630;9.162;2024-03-25T08:32:44;96689.78;;;7.42;100.00
498;BME280;39559;48.630;9.162;2024-03-25T08:35:09;96688.50;;;7.32;100.00
498;BME280;39559;48.630;9.162;2024-03-25T08:37:35;96691.81;;;7.75;100.00
498;BME280;39559;48.630;9.162;2024-03-25T08:40:00;96679.69;;;7.56;100.00
498;BME280;39559;48.630;9.162;2024-03-25T08:42:26;96677.53;;;7.06;100.00
498;BME280;39559;48.630;9.162;2024-03-25T08:44:51;96675.66;;;7.09;100.00
498;BME280;39559;48.630;9.162;2024-03-25T08:47:17;96671.75;;;7.80;100.00
498;BME280;39559;48.630;9.162;2024-03-25T08:49:42;96663.91;;;8.38;100.00
498;BME280;39559;48.630;9.162;2024-03-25T08:54:18;96655.25;;;7.63;100.00
498;BME280;39559;48.630;9.162;2024-03-25T08:56:44;96653.13;;;7.34;100.00
498;BME280;39559;48.630;9.162;2024-03-25T08:59:10;96643.97;;;7.26;100.00
498;BME280;39559;48.630;9.162;2024-03-25T09:01:35;96647.09;;;7.73;100.00
498;BME280;39559;48.630;9.162;2024-03-25T09:04:01;96641.72;;;8.15;100.00
498;BME280;39559;48.630;9.162;2024-03-25T09:06:27;96638.78;;;8.23;100.00
498;BME280;39559;48.630;9.162;2024-03-25T09:08:53;96647.44;;;8.41;100.00
498;BME280;39559;48.630;9.162;2024-03-25T09:11:53;96642.69;;;8.51;100.00
498;BME280;39559;48.630;9.162;2024-03-25T09:14:19;96641.88;;;7.93;100.00
498;BME280;39559;48.630;9.162;2024-03-25T09:18:18;96651.44;;;8.10;100.00
498;BME280;39559;48.630;9.162;2024-03-25T09:20:44;96641.25;;;8.07;100.00
498;BME280;39559;48.630;9.162;2024-03-25T09:23:09;96642.31;;;8.39;100.00
498;BME280;39559;48.630;9.162;2024-03-25T09:25:35;96646.81;;;8.72;100.00
498;BME280;39559;48.630;9.162;2024-03-25T09:28:00;96637.28;;;8.36;100.00
498;BME280;39559;48.630;9.162;2024-03-25T09:30:26;96636.94;;;8.44;100.00
498;BME280;39559;48.630;9.162;2024-03-25T09:32:52;96640.19;;;7.92;100.00
498;BME280;39559;48.630;9.162;2024-03-25T09:35:17;96629.91;;;7.53;100.00
498;BME280;39559;48.630;9.162;2024-03-25T09:37:43;96629.13;;;7.50;100.00
498;BME280;39559;48.630;9.162;2024-03-25T09:42:26;96626.53;;;7.11;100.00
498;BME280;39559;48.630;9.162;2024-03-25T09:44:55;96621.81;;;7.60;100.00
498;BME280;39559;48.630;9.162;2024-03-25T09:47:23;96621.38;;;7.32;100.00
498;BME280;39559;48.630;9.162;2024-03-25T09:49:50;96611.06;;;7.69;100.00
498;BME280;39559;48.630;9.162;2024-03-25T09:52:18;96605.22;;;7.66;100.00
498;BME280;39559;48.630;9.162;2024-03-25T09:54:44;96605.16;;;8.04;100.00
498;BME280;39559;48.630;9.162;2024-03-25T09:57:11;96596.47;;;8.24;100.00
498;BME280;39559;48.630;9.162;2024-03-25T09:59:37;96596.34;;;8.27;100.00
498;BME280;39559;48.630;9.162;2024-03-25T10:02:03;96588.91;;;8.38;100.00
498;BME280;39559;48.630;9.162;2024-03-25T10:06:17;96587.66;;;7.92;100.00
498;BME280;39559;48.630;9.162;2024-03-25T10:08:45;96578.53;;;8.21;100.00
498;BME280;39559;48.630;9.162;2024-03-25T10:11:10;96582.19;;;8.53;100.00
498;BME280;39559;48.630;9.162;2024-03-25T10:13:36;96569.00;;;8.93;100.00
498;BME280;39559;48.630;9.162;2024-03-25T10:16:03;96562.13;;;9.58;100.00
498;BME280;39559;48.630;9.162;2024-03-25T10:18:28;96548.59;;;9.53;96.15
498;BME280;39559;48.630;9.162;2024-03-25T10:20:54;96552.84;;;8.88;95.12
498;BME280;39559;48.630;9.162;2024-03-25T10:23:24;96545.09;;;8.88;98.98
498;BME280;39559;48.630;9.162;2024-03-25T10:25:54;96540.00;;;8.69;100.00
498;BME280;39559;48.630;9.162;2024-03-25T10:30:19;96542.53;;;8.53;96.02
498;BME280;39559;48.630;9.162;2024-03-25T10:32:45;96531.13;;;8.57;97.32
498;BME280;39559;48.630;9.162;2024-03-25T10:35:10;96528.38;;;8.77;90.16
498;BME280;39559;48.630;9.162;2024-03-25T10:37:38;96522.63;;;8.88;87.38
498;BME280;39559;48.630;9.162;2024-03-25T10:40:06;96523.75;;;9.00;93.27
498;BME280;39559;48.630;9.162;2024-03-25T10:42:34;96519.44;;;8.83;83.84
498;BME280;39559;48.630;9.162;2024-03-25T10:45:02;96526.88;;;8.89;95.68
498;BME280;39559;48.630;9.162;2024-03-25T10:47:29;96523.81;;;9.32;86.23
498;BME280;39559;48.630;9.162;2024-03-25T10:54:17;96524.75;;;9.78;95.53
498;BME280;39559;48.630;9.162;2024-03-25T10:56:43;96515.25;;;9.79;83.76
498;BME280;39559;48.630;9.162;2024-03-25T10:59:10;96508.44;;;9.92;94.02
498;BME280;39559;48.630;9.162;2024-03-25T11:01:38;96497.75;;;10.45;78.63
498;BME280;39559;48.630;9.162;2024-03-25T11:04:04;96502.16;;;11.30;69.12
498;BME280;39559;48.630;9.162;2024-03-25T11:06:31;96498.06;;;11.55;73.39
498;BME280;39559;48.630;9.162;2024-03-25T11:08:58;96497.16;;;11.27;71.62
498;BME280;39559;48.630;9.162;2024-03-25T11:11:30;96489.88;;;11.88;73.64
498;BME280;39559;48.630;9.162;2024-03-25T11:13:56;96492.41;;;10.91;74.38
498;BME280;39559;48.630;9.162;2024-03-25T11:18:18;96490.84;;;10.88;81.78
498;BME280;39559;48.630;9.162;2024-03-25T11:21:03;96475.91;;;10.92;80.66
498;BME280;39559;48.630;9.162;2024-03-25T11:23:40;96470.66;;;10.49;87.11
498;BME280;39559;48.630;9.162;2024-03-25T11:26:22;96466.69;;;10.27;85.71
498;BME280;39559;48.630;9.162;2024-03-25T11:28:48;96471.44;;;10.05;87.11
498;BME280;39559;48.630;9.162;2024-03-25T11:31:15;96462.13;;;9.54;79.66
498;BME280;39559;48.630;9.162;2024-03-25T11:33:42;96457.63;;;9.26;81.82
498;BME280;39559;48.630;9.162;2024-03-25T11:36:07;96452.56;;;10.03;81.70
498;BME280;39559;48.630;9.162;2024-03-25T11:38:33;96447.94;;;10.22;82.02
498;BME280;39559;48.630;9.162;2024-03-25T11:42:16;96430.13;;;10.02;90.05
498;BME280;39559;48.630;9.162;2024-03-25T11:44:42;96425.81;;;9.86;78.70
498;BME280;39559;48.630;9.162;2024-03-25T11:47:09;96419.75;;;8.92;86.17
498;BME280;39559;48.630;9.162;2024-03-25T11:49:39;96417.75;;;9.60;76.39
498;BME280;39559;48.630;9.162;2024-03-25T11:52:06;96415.41;;;10.16;74.96
498;BME280;39559;48.630;9.162;2024-03-25T11:54:32;96411.22;;;12.25;78.82
498;BME280;39559;48.630;9.162;2024-03-25T11:56:58;96401.81;;;11.82;65.99
498;BME280;39559;48.630;9.162;2024-03-25T11:59:24;96392.91;;;12.52;63.29
498;BME280;39559;48.630;9.162;2024-03-25T12:01:50;96394.41;;;12.03;63.38
498;BME280;39559;48.630;9.162;2024-03-25T12:06:15;96386.66;;;12.42;62.02
498;BME280;39559;48.630;9.162;2024-03-25T12:08:41;96389.81;;;11.40;58.78
498;BME280;39559;48.630;9.162;2024-03-25T12:11:26;96380.00;;;10.89;62.93
498;BME280;39559;48.630;9.162;2024-03-25T12:13:52;96384.75;;;11.51;59.15
498;BME280;39559;48.630;9.162;2024-03-25T12:16:17;96380.63;;;11.88;56.96
498;BME280;39559;48.630;9.162;2024-03-25T12:18:43;96372.09;;;11.46;56.88
498;BME280;39559;48.630;9.162;2024-03-25T12:21:10;96358.97;;;11.21;65.21
498;BME280;39559;48.630;9.162;2024-03-25T12:23:36;96352.72;;;10.96;58.03
498;BME280;39559;48.630;9.162;2024-03-25T12:26:03;96355.22;;;10.98;56.86
498;BME280;39559;48.630;9.162;2024-03-25T12:30:13;96326.69;;;11.65;58.89
498;BME280;39559;48.630;9.162;2024-03-25T12:32:39;96319.56;;;12.45;57.98
498;BME280;39559;48.630;9.162;2024-03-25T12:35:08;96319.94;;;13.15;52.80
498;BME280;39559;48.630;9.162;2024-03-25T12:37:34;96317.25;;;15.13;48.86
498;BME280;39559;48.630;9.162;2024-03-25T12:39:59;96307.06;;;14.98;46.28
498;BME280;39559;48.630;9.162;2024-03-25T12:42:26;96305.88;;;14.35;46.32
498;BME280;39559;48.630;9.162;2024-03-25T12:44:55;96297.34;;;14.33;47.43
498;BME280;39559;48.630;9.162;2024-03-25T12:47:21;96295.34;;;15.25;44.08
498;BME280;39559;48.630;9.162;2024-03-25T12:49:47;96289.44;;;16.19;45.73
498;BME280;39559;48.630;9.162;2024-03-25T12:54:12;96286.44;;;14.73;45.20
498;BME280;39559;48.630;9.162;2024-03-25T12:56:37;96266.94;;;14.20;46.40
498;BME280;39559;48.630;9.162;2024-03-25T12:59:03;96259.22;;;14.42;44.89
498;BME280;39559;48.630;9.162;2024-03-25T13:01:28;96270.56;;;13.37;48.32
498;BME280;39559;48.630;9.162;2024-03-25T13:03:54;96267.56;;;13.66;46.74
498;BME280;39559;48.630;9.162;2024-03-25T13:06:19;96265.28;;;14.08;46.44
498;BME280;39559;48.630;9.162;2024-03-25T13:08:45;96250.19;;;15.55;45.39
498;BME280;39559;48.630;9.162;2024-03-25T13:11:11;96251.13;;;15.22;42.00
498;BME280;39559;48.630;9.162;2024-03-25T13:13:36;96248.91;;;14.29;46.12
498;BME280;39559;48.630;9.162;2024-03-25T13:18:07;96243.41;;;14.77;43.17
498;BME280;39559;48.630;9.162;2024-03-25T13:20:33;96235.00;;;13.94;50.58
498;BME280;39559;48.630;9.162;2024-03-25T13:22:59;96237.16;;;14.12;46.81
498;BME280;39559;48.630;9.162;2024-03-25T13:25:25;96230.25;;;14.33;46.50
498;BME280;39559;48.630;9.162;2024-03-25T13:27:52;96226.34;;;14.05;47.54
498;BME280;39559;48.630;9.162;2024-03-25T13:30:18;96228.44;;;13.06;48.61
498;BME280;39559;48.630;9.162;2024-03-25T13:32:44;96228.31;;;12.84;45.11
498;BME280;39559;48.630;9.162;2024-03-25T13:35:09;96215.78;;;12.89;46.53
498;BME280;39559;48.630;9.162;2024-03-25T13:37:35;96204.94;;;12.95;49.01
498;BME280;39559;48.630;9.162;2024-03-25T13:42:07;96206.31;;;13.36;47.48
498;BME280;39559;48.630;9.162;2024-03-25T13:44:33;96200.25;;;14.05;49.01
498;BME280;39559;48.630;9.162;2024-03-25T13:46:59;96197.09;;;13.19;45.19
498;BME280;39559;48.630;9.162;2024-03-25T13:49:24;96187.84;;;13.15;46.05
498;BME280;39559;48.630;9.162;2024-03-25T13:51:57;96193.06;;;12.43;47.33
498;BME280;39559;48.630;9.162;2024-03-25T13:54:27;96185.59;;;13.22;51.08
498;BME280;39559;48.630;9.162;2024-03-25T13:56:52;96191.56;;;12.52;48.59
498;BME280;39559;48.630;9.162;2024-03-25T13:59:18;96178.63;;;13.58;47.70
498;BME280;39559;48.630;9.162;2024-03-25T14:01:45;96176.50;;;13.74;48.83
498;BME280;39559;48.630;9.162;2024-03-25T14:06:05;96167.41;;;12.74;46.23
498;BME280;39559;48.630;9.162;2024-03-25T14:08:31;96158.81;;;13.20;48.43
498;BME280;39559;48.630;9.162;2024-03-25T14:10:58;96162.09;;;12.75;47.69
498;BME280;39559;48.630;9.162;2024-03-25T14:13:24;96155.50;;;13.18;44.22
498;BME280;39559;48.630;9.162;2024-03-25T14:15:51;96152.16;;;13.04;47.43
498;BME280;39559;48.630;9.162;2024-03-25T14:18:17;96148.53;;;13.30;47.43
498;BME280;39559;48.630;9.162;2024-03-25T14:20:43;96149.31;;;12.48;48.12
498;BME280;39559;48.630;9.162;2024-03-25T14:23:09;96135.38;;;11.99;50.33
498;BME280;39559;48.630;9.162;2024-03-25T14:25:35;96123.41;;;11.71;49.77
498;BME280;39559;48.630;9.162;2024-03-25T14:30:04;96124.34;;;11.83;50.87
498;BME280;39559;48.630;9.162;2024-03-25T14:32:33;96112.78;;;12.00;51.90
498;BME280;39559;48.630;9.162;2024-03-25T14:35:00;96110.13;;;11.76;52.95